Huvudsida
METAR-TAF:

METAR-TAF

Flygplatser :

Paganella, Italien

latitud: 46-09N, longitud: 011-02E, höjd: 2125 m

Aktuellt väderrapport

Denna rapport gjordes för 53 minuter sedan, klockan 13:55 UTC
Vind 1 kt från nord
Temperatur 22°C
Fuktighet 50%
Tryck 1036 hPa
Sikt 10 km eller mer
Inga moln under 1 500 m eller inga cumulonimbus

METAR: LIVP 261355Z 36001KT CAVOK 22/11 Q1036 RMK SKC MON LIB VAL S FOSCHIA SKC SUP VIS MIN 9999

Tid: 16:48 (14:48 UTC)


TAF: saknas

Aktuella väderrapporter och prognoser från 4000 flygplatser (METAR- och TAF-rapporter).

De tillgängliga stationerna syns som gula och röda prickar på kartan.

För musen över prickarna för att se namnen på stationerna.

Klicka sedan för att få väderrapporter och prognoser.

För att ändra kartan: Klicka på de gröna knapparna med ett svart kors på för att zooma in; den gröna knappen med ett streck på för att zooma ut; eller på de gröna pilarna för angränsande kartor.


METAR-TAF: